Time;durP1;ratioP1;P1;durP2;ratioP2;P2;SDS_P1;SDS_P2;PMS_P1;PMS_P2;Temp;Humidity;BMP_temperature;BMP_pressure;BME280_temperature;BME280_humidity;BME280_pressure;Samples;Min_cycle;Max_cycle;Signal;HPM_P1;HPM_P2
2022/11/02 00:02:16;;;;;;;5.40;2.00;;;;;;;8.26;92.44;96162.19;4958061;28;20285;-85
2022/11/02 00:04:41;;;;;;;4.27;1.77;;;;;;;8.21;93.59;96163.34;4958924;28;20220;-84
2022/11/02 00:07:07;;;;;;;6.47;1.60;;;;;;;8.34;93.36;96165.00;4975203;28;20188;-84
2022/11/02 00:09:32;;;;;;;6.87;2.47;;;;;;;8.52;92.31;96161.00;4957068;28;20308;-83
2022/11/02 00:11:57;;;;;;;8.97;2.20;;;;;;;8.60;91.65;96163.81;4989515;28;20185;-83
2022/11/02 00:14:22;;;;;;;3.53;1.30;;;;;;;8.78;90.48;96152.00;4973076;28;20204;-83
2022/11/02 00:16:48;;;;;;;4.17;1.40;;;;;;;8.97;89.31;96158.31;4974166;28;20656;-84
2022/11/02 00:19:13;;;;;;;4.33;1.67;;;;;;;8.95;89.15;96149.84;4972514;28;20219;-84
2022/11/02 00:21:40;;;;;;;2.87;1.53;;;;;;;9.08;88.18;96153.09;4972813;28;20235;-85
2022/11/02 00:24:06;;;;;;;5.13;1.50;;;;;;;9.14;87.54;96155.19;4959226;28;20259;-83
2022/11/02 00:26:32;;;;;;;6.33;1.40;;;;;;;9.18;87.32;96159.16;4961734;28;20204;-85
2022/11/02 00:28:57;;;;;;;5.93;1.57;;;;;;;9.26;86.74;96154.19;4973162;28;20199;-85
2022/11/02 00:31:23;;;;;;;9.70;1.60;;;;;;;9.34;85.94;96150.97;4989448;28;20213;-84
2022/11/02 00:33:48;;;;;;;7.63;1.60;;;;;;;9.33;86.27;96150.16;4973436;28;20189;-85
2022/11/02 00:36:13;;;;;;;3.43;1.20;;;;;;;9.32;86.26;96166.66;4972424;28;20234;-83
2022/11/02 00:38:39;;;;;;;5.80;1.40;;;;;;;9.37;84.92;96163.69;4973167;28;20219;-84
2022/11/02 00:41:05;;;;;;;4.97;1.83;;;;;;;9.42;84.85;96165.91;4990002;28;20262;-84
2022/11/02 00:43:30;;;;;;;8.23;2.13;;;;;;;9.43;85.25;96162.38;4973418;28;20216;-85
2022/11/02 00:45:56;;;;;;;5.27;1.87;;;;;;;9.37;85.40;96161.13;4966086;28;20188;-84
2022/11/02 00:48:21;;;;;;;7.53;1.40;;;;;;;9.46;85.19;96167.31;4974720;28;20197;-84
2022/11/02 00:50:46;;;;;;;4.40;1.43;;;;;;;9.47;84.43;96153.41;4989385;28;20223;-84
2022/11/02 00:53:11;;;;;;;5.23;1.40;;;;;;;9.34;84.63;96167.34;4984226;28;20243;-83
2022/11/02 00:55:37;;;;;;;8.70;1.50;;;;;;;9.32;85.06;96171.03;4961321;28;20305;-83
2022/11/02 00:58:02;;;;;;;7.03;1.73;;;;;;;9.32;84.88;96177.03;4965745;28;20680;-83
2022/11/02 01:00:27;;;;;;;4.50;1.80;;;;;;;9.29;85.45;96171.28;4971117;28;20208;-84
2022/11/02 01:02:53;;;;;;;6.77;1.60;;;;;;;9.30;85.48;96176.34;4973242;28;20622;-84
2022/11/02 01:05:18;;;;;;;7.30;1.40;;;;;;;9.31;84.99;96167.59;4971146;28;20212;-84
2022/11/02 01:07:43;;;;;;;3.53;1.80;;;;;;;9.31;84.92;96167.59;4989072;28;20189;-84
2022/11/02 01:10:09;;;;;;;7.17;1.47;;;;;;;9.29;84.68;96176.47;4972831;28;20643;-83
2022/11/02 01:12:38;;;;;;;5.77;2.00;;;;;;;9.31;84.83;96171.97;4954741;28;20220;-83
2022/11/02 01:15:06;;;;;;;4.70;1.50;;;;;;;9.29;85.56;96166.09;4952805;28;20192;-84
2022/11/02 01:17:32;;;;;;;5.37;1.40;;;;;;;9.32;84.65;96166.66;4971262;28;20211;-84
2022/11/02 01:19:58;;;;;;;6.60;1.60;;;;;;;9.30;85.04;96168.56;4972758;28;20295;-83
2022/11/02 01:22:23;;;;;;;7.37;1.57;;;;;;;9.30;85.30;96168.56;4973798;28;20718;-83
2022/11/02 01:24:48;;;;;;;4.10;1.47;;;;;;;9.27;85.60;96166.19;4972315;28;20212;-83
2022/11/02 01:27:14;;;;;;;5.73;2.07;;;;;;;9.30;85.31;96167.75;4971965;28;20238;-83
2022/11/02 01:29:39;;;;;;;6.43;1.40;;;;;;;9.24;85.73;96169.03;4969512;28;20659;-83
2022/11/02 01:32:04;;;;;;;8.67;1.70;;;;;;;9.22;86.27;96165.75;4972090;28;20196;-83
2022/11/02 01:34:29;;;;;;;5.53;1.63;;;;;;;9.17;86.45;96162.72;4971681;28;20209;-84
2022/11/02 01:36:55;;;;;;;4.20;1.60;;;;;;;9.06;87.17;96166.16;4971145;28;20212;-84
2022/11/02 01:39:20;;;;;;;6.33;1.80;;;;;;;9.07;88.16;96156.63;4973074;28;20192;-83
2022/11/02 01:41:49;;;;;;;6.17;1.93;;;;;;;9.07;88.20;96148.84;4991464;28;20208;-84
2022/11/02 01:44:28;;;;;;;5.07;1.83;;;;;;;9.10;87.97;96148.63;4974468;28;20582;-84
2022/11/02 01:46:57;;;;;;;8.53;2.10;;;;;;;9.04;88.43;96146.53;4963591;28;20219;-83
2022/11/02 01:49:23;;;;;;;6.10;2.30;;;;;;;8.97;89.06;96145.34;4991398;28;20184;-84
2022/11/02 01:51:53;;;;;;;8.23;1.70;;;;;;;8.94;89.31;96136.06;4974272;28;20483;-84
2022/11/02 01:54:21;;;;;;;7.13;2.13;;;;;;;8.92;89.89;96137.13;4957722;28;20196;-83
2022/11/02 01:56:50;;;;;;;7.80;2.43;;;;;;;8.92;90.36;96137.13;4958218;28;20247;-84
2022/11/02 01:59:19;;;;;;;6.93;1.87;;;;;;;8.97;90.03;96135.81;4989795;28;20629;-83
2022/11/02 02:01:45;;;;;;;12.13;2.53;;;;;;;8.87;90.42;96123.75;4989054;28;20220;-84
2022/11/02 02:04:11;;;;;;;3.53;1.50;;;;;;;8.97;89.70;96127.22;4973778;28;20209;-84
2022/11/02 02:06:38;;;;;;;5.13;1.90;;;;;;;8.83;89.94;96137.84;4974650;28;20207;-83
2022/11/02 02:09:04;;;;;;;6.70;2.00;;;;;;;8.79;90.32;96129.53;4956917;28;20299;-83
2022/11/02 02:11:31;;;;;;;4.40;1.77;;;;;;;8.80;90.44;96126.81;4974333;28;20205;-83
2022/11/02 02:14:17;;;;;;;5.53;1.70;;;;;;;8.89;90.14;96127.03;4990284;28;20192;-84
2022/11/02 02:17:05;;;;;;;10.60;1.90;;;;;;;8.84;90.03;96113.63;4955798;28;20270;-82
2022/11/02 02:19:37;;;;;;;6.87;1.97;;;;;;;8.80;89.81;96116.44;4958044;28;20246;-83
2022/11/02 02:22:32;;;;;;;9.00;1.80;;;;;;;8.86;89.86;96111.75;4955244;28;20618;-83
2022/11/02 02:25:14;;;;;;;6.60;1.67;;;;;;;8.76;89.58;96111.66;4989441;28;20685;-83
2022/11/02 02:27:54;;;;;;;5.07;2.07;;;;;;;8.78;90.08;96110.56;4967165;28;20607;-83
2022/11/02 02:30:20;;;;;;;7.90;1.93;;;;;;;8.72;90.50;96111.06;4974565;28;20728;-83
2022/11/02 02:32:54;;;;;;;7.00;1.70;;;;;;;8.74;90.45;96105.75;4990306;28;20197;-84
2022/11/02 02:35:19;;;;;;;6.73;1.90;;;;;;;8.70;91.02;96096.59;4973551;28;20611;-83
2022/11/02 02:38:02;;;;;;;4.27;2.03;;;;;;;8.78;90.27;96102.00;4968953;28;20192;-84
2022/11/02 02:40:32;;;;;;;6.20;1.50;;;;;;;8.75;89.97;96110.00;4957246;28;20668;-83
2022/11/02 02:43:04;;;;;;;8.27;2.10;;;;;;;8.75;90.33;96099.66;5014125;28;20177;-84
2022/11/02 02:45:33;;;;;;;6.53;1.73;;;;;;;8.76;90.15;96107.28;4988480;28;20236;-84
2022/11/02 02:48:02;;;;;;;6.23;1.70;;;;;;;8.81;89.64;96104.31;5011945;28;20183;-83
2022/11/02 02:50:38;;;;;;;7.40;1.93;;;;;;;8.82;89.58;96097.38;5011859;28;20193;-82
2022/11/02 02:53:05;;;;;;;6.03;1.77;;;;;;;8.85;89.68;96104.91;4981160;28;20679;-84
2022/11/02 02:55:35;;;;;;;8.47;1.70;;;;;;;8.83;89.34;96101.59;4972264;28;20196;-83
2022/11/02 02:58:01;;;;;;;7.83;1.83;;;;;;;8.83;89.23;96107.59;4989618;28;20239;-84
2022/11/02 03:00:27;;;;;;;4.70;1.90;;;;;;;8.84;89.29;96109.28;4956286;28;20204;-82
2022/11/02 03:03:00;;;;;;;7.50;2.60;;;;;;;8.94;88.84;96114.53;4974169;28;20608;-83
2022/11/02 03:05:28;;;;;;;4.53;1.90;;;;;;;8.90;89.24;96106.16;4988842;28;20791;-83
2022/11/02 03:07:55;;;;;;;4.60;1.60;;;;;;;8.93;88.86;96116.31;4974685;28;20215;-84
2022/11/02 03:10:27;;;;;;;7.37;1.80;;;;;;;8.96;88.37;96105.69;4956203;28;20251;-84
2022/11/02 03:13:08;;;;;;;4.73;1.73;;;;;;;8.95;88.68;96111.00;4991402;28;20699;-84
2022/11/02 03:15:34;;;;;;;8.67;1.87;;;;;;;8.96;88.36;96100.50;4976638;28;20591;-83
2022/11/02 03:18:20;;;;;;;7.17;1.63;;;;;;;9.00;88.67;96095.88;4976637;28;20303;-83
2022/11/02 03:21:24;;;;;;;10.47;1.93;;;;;;;8.94;88.62;96096.41;4984438;28;20252;-82
2022/11/02 03:24:04;;;;;;;9.80;1.73;;;;;;;8.97;88.76;96101.31;4973458;28;20704;-83
2022/11/02 03:26:37;;;;;;;5.17;1.67;;;;;;;8.89;88.79;96095.94;4972516;28;20184;-82
2022/11/02 03:29:17;;;;;;;9.57;1.97;;;;;;;8.85;88.74;96099.72;4971417;28;20184;-82
2022/11/02 03:31:46;;;;;;;11.50;2.23;;;;;;;8.87;88.84;96093.47;4970532;28;20947;-85
2022/11/02 03:34:23;;;;;;;7.00;1.70;;;;;;;8.86;88.34;96096.19;4953012;28;20196;-83
2022/11/02 03:36:53;;;;;;;9.90;1.90;;;;;;;8.75;88.64;96110.00;4970185;28;20665;-85
2022/11/02 03:39:29;;;;;;;6.93;1.80;;;;;;;8.85;88.60;96107.50;4955956;28;20192;-82
2022/11/02 03:41:55;;;;;;;5.90;2.20;;;;;;;8.80;88.24;96123.41;4988277;28;20218;-84
2022/11/02 03:44:24;;;;;;;7.73;1.73;;;;;;;8.81;88.64;96119.84;4972269;28;20248;-84
2022/11/02 03:46:52;;;;;;;8.30;2.53;;;;;;;8.85;88.37;96117.88;4957977;28;20200;-84
2022/11/02 03:49:18;;;;;;;6.00;1.63;;;;;;;8.83;87.93;96120.56;4971564;28;20180;-84
2022/11/02 03:51:44;;;;;;;7.33;1.80;;;;;;;8.76;88.32;96125.41;4987218;28;20280;-84
2022/11/02 03:54:28;;;;;;;5.33;1.80;;;;;;;8.83;88.25;96124.91;4963896;28;20276;-84
2022/11/02 03:56:56;;;;;;;7.73;2.30;;;;;;;8.84;88.65;96122.22;4970771;28;20238;-83
2022/11/02 03:59:21;;;;;;;4.70;1.83;;;;;;;8.86;89.30;96128.09;4971793;28;20176;-83
2022/11/02 04:01:49;;;;;;;6.20;1.70;;;;;;;8.92;88.51;96124.16;4971008;28;20212;-84
2022/11/02 04:04:15;;;;;;;5.73;1.93;;;;;;;8.86;88.50;96130.69;4958838;28;20251;-84
2022/11/02 04:06:41;;;;;;;5.57;1.97;;;;;;;8.77;88.94;96126.25;4976504;28;20599;-85
2022/11/02 04:09:06;;;;;;;11.30;1.93;;;;;;;8.74;89.46;96134.22;4962717;28;20191;-85
2022/11/02 04:19:43;;;;;;;5.03;2.30;;;;;;;8.85;88.51;96136.00;4976561;28;20747;-85
2022/11/02 04:27:37;;;;;;;6.17;1.63;;;;;;;8.74;88.79;96145.41;4974676;28;20195;-84
2022/11/02 04:30:03;;;;;;;5.83;1.60;;;;;;;8.74;87.91;96142.00;4975475;28;20212;-84
2022/11/02 04:35:12;;;;;;;5.03;1.83;;;;;;;8.63;89.09;96153.22;4975068;28;20571;-84
2022/11/02 04:40:26;;;;;;;3.70;1.87;;;;;;;8.63;89.37;96152.38;4986933;28;20295;-84
2022/11/02 04:42:51;;;;;;;7.33;2.60;;;;;;;8.57;89.63;96147.69;4974284;28;20275;-84
2022/11/02 04:45:16;;;;;;;7.00;1.87;;;;;;;8.54;89.87;96151.34;4973336;28;20207;-85
2022/11/02 04:47:42;;;;;;;6.37;1.67;;;;;;;8.49;89.54;96148.31;4974412;28;20195;-85
2022/11/02 04:50:07;;;;;;;5.70;1.77;;;;;;;8.50;90.12;96155.13;4973927;28;20205;-85
2022/11/02 04:52:33;;;;;;;5.13;1.73;;;;;;;8.51;89.63;96159.38;4989557;28;20220;-85
2022/11/02 04:54:58;;;;;;;6.60;1.90;;;;;;;8.48;90.13;96155.25;4974293;28;20243;-86
2022/11/02 04:57:24;;;;;;;10.13;1.60;;;;;;;8.50;89.53;96160.31;4959073;28;20189;-85
2022/11/02 04:59:49;;;;;;;6.20;1.60;;;;;;;8.49;89.55;96156.91;4974512;28;20247;-85
2022/11/02 05:02:14;;;;;;;7.07;1.67;;;;;;;8.48;89.43;96160.44;4973885;28;20185;-84
2022/11/02 05:04:39;;;;;;;8.97;1.80;;;;;;;8.56;89.70;96162.41;4970654;28;20220;-85
2022/11/02 05:07:06;;;;;;;7.37;1.70;;;;;;;8.60;89.65;96168.19;4969031;28;20622;-84
2022/11/02 05:09:31;;;;;;;8.77;2.10;;;;;;;8.68;89.34;96155.47;4962083;28;20185;-85
2022/11/02 05:11:57;;;;;;;5.87;1.73;;;;;;;8.67;89.43;96170.16;4974207;28;20194;-83
2022/11/02 05:14:22;;;;;;;8.70;2.00;;;;;;;8.76;89.51;96166.03;4974281;28;20216;-85
2022/11/02 05:16:47;;;;;;;7.63;1.90;;;;;;;8.82;88.89;96162.13;4976350;28;20683;-85
2022/11/02 05:19:12;;;;;;;8.43;1.77;;;;;;;8.93;88.89;96164.69;4977360;28;20192;-84
2022/11/02 05:21:38;;;;;;;7.53;2.13;;;;;;;9.06;88.35;96161.00;4977081;28;20205;-85
2022/11/02 05:24:03;;;;;;;7.37;2.00;;;;;;;9.14;87.57;96160.38;4967155;28;20571;-84
2022/11/02 05:26:29;;;;;;;7.17;1.80;;;;;;;9.24;87.38;96169.03;4976688;28;20227;-85
2022/11/02 05:28:54;;;;;;;7.77;1.67;;;;;;;9.39;86.61;96172.16;4976135;28;20192;-83
2022/11/02 05:31:19;;;;;;;10.07;2.17;;;;;;;9.40;86.86;96184.19;4992362;28;20222;-84
2022/11/02 05:33:44;;;;;;;4.97;1.60;;;;;;;9.50;86.05;96179.06;4960319;28;20665;-84
2022/11/02 05:36:10;;;;;;;4.93;1.70;;;;;;;9.49;86.07;96187.78;4990844;28;20192;-85
2022/11/02 05:38:35;;;;;;;6.33;1.63;;;;;;;9.52;85.68;96182.34;4988570;28;20201;-84
2022/11/02 05:41:00;;;;;;;6.43;1.90;;;;;;;9.50;85.66;96187.66;4976812;28;20219;-85
2022/11/02 05:43:26;;;;;;;7.63;1.90;;;;;;;9.47;85.62;96194.88;4969163;28;20562;-84
2022/11/02 05:45:56;;;;;;;8.93;1.70;;;;;;;9.46;85.55;96188.06;4973059;28;20192;-86
2022/11/02 05:48:22;;;;;;;8.73;2.70;;;;;;;9.59;85.59;96193.88;4958795;28;20203;-85
2022/11/02 05:50:48;;;;;;;5.83;1.87;;;;;;;9.55;85.55;96197.69;4975366;28;20209;-84
2022/11/02 05:53:13;;;;;;;9.07;1.60;;;;;;;9.62;85.54;96198.78;4960048;28;20219;-85
2022/11/02 05:55:39;;;;;;;6.80;1.63;;;;;;;9.70;84.65;96188.63;4966509;28;20220;-86
2022/11/02 05:58:04;;;;;;;6.53;1.60;;;;;;;9.70;85.00;96200.75;4976518;28;20665;-85
2022/11/02 06:00:29;;;;;;;6.60;1.93;;;;;;;9.70;84.85;96205.94;4975865;28;20263;-85
2022/11/02 06:02:58;;;;;;;6.70;2.00;;;;;;;9.77;84.81;96215.69;4973549;28;20193;-84
2022/11/02 06:05:24;;;;;;;4.63;1.90;;;;;;;9.74;85.11;96208.19;4976507;28;20233;-84
2022/11/02 06:07:50;;;;;;;9.13;1.90;;;;;;;9.69;85.76;96218.09;4975591;28;20568;-84
2022/11/02 06:10:15;;;;;;;6.40;1.67;;;;;;;9.54;87.26;96224.53;4991622;28;20220;-85
2022/11/02 06:12:40;;;;;;;7.40;2.00;;;;;;;9.54;87.94;96227.13;4974806;28;20200;-83
2022/11/02 06:15:06;;;;;;;5.13;1.53;;;;;;;9.64;87.50;96238.41;4974355;28;20203;-85
2022/11/02 06:17:38;;;;;;;5.50;2.10;;;;;;;9.65;88.32;96248.66;4974475;28;20222;-84
2022/11/02 06:20:04;;;;;;;7.00;2.40;;;;;;;9.49;90.54;96240.47;4977551;28;20236;-85
2022/11/02 06:22:29;;;;;;;12.97;5.07;;;;;;;9.62;91.87;96250.66;4969971;28;20196;-85
2022/11/02 06:24:54;;;;;;;12.43;3.03;;;;;;;9.67;93.26;96253.72;4971054;28;20217;-84
2022/11/02 06:27:20;;;;;;;14.47;4.60;;;;;;;9.71;94.00;96259.47;4955505;28;20208;-85
2022/11/02 06:29:45;;;;;;;10.33;3.10;;;;;;;9.63;95.51;96260.09;4970175;28;20271;-85
2022/11/02 06:32:10;;;;;;;7.10;2.57;;;;;;;9.63;96.10;96247.97;4957031;28;20216;-84
2022/11/02 06:34:42;;;;;;;6.73;2.80;;;;;;;9.64;96.86;96253.97;4973473;28;20204;-85
2022/11/02 06:37:07;;;;;;;11.17;1.77;;;;;;;9.53;98.70;96254.81;4974424;28;20203;-85
2022/11/02 06:39:32;;;;;;;9.80;2.70;;;;;;;9.64;98.82;96246.19;4965330;28;20644;-86
2022/11/02 06:41:57;;;;;;;14.50;4.00;;;;;;;9.69;98.69;96254.41;4956761;28;20180;-85
2022/11/02 06:44:23;;;;;;;8.10;3.40;;;;;;;9.76;98.47;96260.75;4972197;28;20660;-86
2022/11/02 06:46:48;;;;;;;8.37;4.30;;;;;;;9.78;98.47;96271.00;4969653;28;20201;-86
2022/11/02 06:49:13;;;;;;;12.57;6.40;;;;;;;9.84;98.26;96265.31;4972095;28;20185;-84
2022/11/02 06:51:39;;;;;;;12.23;4.23;;;;;;;9.87;98.54;96275.44;4972860;28;20584;-85
2022/11/02 06:54:04;;;;;;;15.23;4.07;;;;;;;9.84;99.05;96275.69;4990188;28;20188;-85
2022/11/02 06:56:29;;;;;;;9.33;3.30;;;;;;;9.90;98.55;96268.22;4957131;28;20188;-84
2022/11/02 06:58:54;;;;;;;12.47;4.67;;;;;;;9.86;98.69;96273.78;4957518;28;20211;-85
2022/11/02 07:01:20;;;;;;;9.60;2.87;;;;;;;9.92;98.33;96279.31;4989549;28;20759;-85
2022/11/02 07:03:45;;;;;;;4.20;1.90;;;;;;;9.96;98.09;96286.81;4972911;28;20208;-85
2022/11/02 07:06:10;;;;;;;5.50;1.90;;;;;;;10.05;98.13;96294.66;4971936;28;20196;-84
2022/11/02 07:08:36;;;;;;;6.90;2.40;;;;;;;10.11;97.04;96291.59;4973302;28;20200;-83
2022/11/02 07:11:01;;;;;;;6.50;1.90;;;;;;;10.19;96.63;96296.16;4972666;28;20612;-85
2022/11/02 07:13:26;;;;;;;8.63;3.20;;;;;;;10.26;96.04;96307.69;4972088;28;20275;-84
2022/11/02 07:15:52;;;;;;;14.13;4.67;;;;;;;10.29;95.75;96306.63;4964448;28;20197;-85
2022/11/02 07:18:18;;;;;;;2.93;1.97;;;;;;;10.42;95.65;96325.41;4972269;28;20185;-84
2022/11/02 07:20:43;;;;;;;6.80;1.83;;;;;;;10.43;95.39;96321.88;4953396;28;20704;-84
2022/11/02 07:23:08;;;;;;;6.67;2.30;;;;;;;10.43;94.59;96327.91;4972306;28;20196;-84
2022/11/02 07:25:34;;;;;;;6.17;1.63;;;;;;;10.45;94.13;96320.78;4971623;28;20538;-84
2022/11/02 07:28:00;;;;;;;5.70;1.40;;;;;;;10.43;94.44;96320.09;4969994;28;20199;-84
2022/11/02 07:30:27;;;;;;;4.30;1.67;;;;;;;10.46;93.94;96335.41;4972654;28;20212;-84
2022/11/02 07:32:53;;;;;;;7.30;2.10;;;;;;;10.45;93.63;96343.34;4954835;28;20189;-85
2022/11/02 07:35:18;;;;;;;5.60;1.90;;;;;;;10.57;94.02;96344.09;4971818;28;20189;-84
2022/11/02 07:37:43;;;;;;;3.90;1.30;;;;;;;10.57;93.48;96344.09;4972224;28;20640;-84
2022/11/02 07:40:10;;;;;;;7.80;2.00;;;;;;;10.46;94.22;96347.59;4987732;28;20211;-84
2022/11/02 07:42:42;;;;;;;3.97;1.87;;;;;;;10.48;94.46;96343.91;4974098;28;20189;-84
2022/11/02 07:45:07;;;;;;;6.43;1.90;;;;;;;10.66;92.53;96340.72;4973714;28;20252;-84
2022/11/02 07:47:33;;;;;;;8.67;1.87;;;;;;;10.88;91.44;96344.94;4955997;28;20193;-85
2022/11/02 07:49:59;;;;;;;5.60;2.27;;;;;;;11.07;91.01;96351.03;4973706;28;20208;-85
2022/11/02 07:52:24;;;;;;;9.77;1.90;;;;;;;11.17;89.89;96352.84;4966926;28;20286;-84
2022/11/02 07:54:50;;;;;;;7.83;2.17;;;;;;;11.28;89.96;96348.38;4970792;28;20186;-83
2022/11/02 07:57:15;;;;;;;5.57;2.20;;;;;;;11.44;88.68;96347.06;4971476;28;20280;-84
2022/11/02 07:59:40;;;;;;;7.97;2.10;;;;;;;11.36;88.46;96345.09;4966707;28;20184;-85
2022/11/02 08:02:09;;;;;;;8.20;1.87;;;;;;;11.49;89.01;96363.91;4971547;28;20800;-84
2022/11/02 08:04:34;;;;;;;6.73;1.80;;;;;;;11.69;88.09;96363.94;4970599;28;20196;-84
2022/11/02 08:07:01;;;;;;;6.57;1.83;;;;;;;11.82;86.50;96367.94;4971493;28;20250;-84
2022/11/02 08:09:26;;;;;;;4.37;1.43;;;;;;;11.88;86.40;96364.81;4971296;28;20195;-83
2022/11/02 08:11:51;;;;;;;6.13;2.00;;;;;;;11.85;86.89;96367.69;4958895;28;20213;-85
2022/11/02 08:14:17;;;;;;;6.90;1.70;;;;;;;11.78;87.42;96369.16;4987705;28;20235;-84
2022/11/02 08:16:43;;;;;;;9.50;1.60;;;;;;;11.90;88.02;96375.91;4969613;28;20208;-84
2022/11/02 08:19:08;;;;;;;4.93;1.60;;;;;;;11.89;87.98;96371.66;4970048;28;20565;-85
2022/11/02 08:21:33;;;;;;;6.90;1.50;;;;;;;11.94;86.36;96373.88;4944609;28;20216;-84
2022/11/02 08:24:02;;;;;;;7.57;2.73;;;;;;;12.05;85.72;96373.75;4971130;28;20212;-84
2022/11/02 08:26:27;;;;;;;7.20;2.03;;;;;;;11.86;83.63;96371.13;4955274;28;20193;-84
2022/11/02 08:28:52;;;;;;;6.90;1.80;;;;;;;11.81;83.66;96371.50;4970750;28;20200;-84
2022/11/02 08:31:18;;;;;;;8.27;2.90;;;;;;;11.98;83.94;96383.03;4971287;28;20208;-84
2022/11/02 08:33:43;;;;;;;13.00;4.87;;;;;;;11.94;83.48;96381.69;4969759;28;20195;-84
2022/11/02 08:36:09;;;;;;;7.70;3.13;;;;;;;12.04;82.64;96385.13;4954899;28;20260;-83
2022/11/02 08:38:35;;;;;;;7.70;2.20;;;;;;;11.94;80.89;96383.47;4970163;28;20185;-84
2022/11/02 08:41:00;;;;;;;10.40;2.27;;;;;;;11.70;80.84;96381.19;4951737;28;20553;-84
2022/11/02 08:43:25;;;;;;;5.47;1.80;;;;;;;12.04;81.08;96392.09;4959920;28;20228;-84
2022/11/02 08:45:51;;;;;;;19.33;7.13;;;;;;;12.01;80.80;96385.38;4971787;28;20209;-85
2022/11/02 08:48:16;;;;;;;12.87;4.17;;;;;;;12.14;80.06;96383.34;4980298;28;20183;-84
2022/11/02 08:50:41;;;;;;;8.40;2.63;;;;;;;12.13;77.81;96386.91;4990365;28;20204;-84
2022/11/02 08:53:07;;;;;;;7.73;2.10;;;;;;;12.11;77.63;96383.63;4994794;28;20181;-85
2022/11/02 08:55:32;;;;;;;12.67;2.60;;;;;;;12.10;77.32;96371.56;4990404;28;20176;-85
2022/11/02 08:57:58;;;;;;;19.70;7.20;;;;;;;11.89;78.92;96376.06;4986926;28;20188;-85
2022/11/02 09:00:26;;;;;;;7.97;4.07;;;;;;;12.01;78.60;96385.38;4982781;28;20196;-85
2022/11/02 09:03:02;;;;;;;20.27;6.23;;;;;;;12.12;77.72;96390.47;4983409;28;20189;-85
2022/11/02 09:05:29;;;;;;;17.17;5.10;;;;;;;12.05;76.79;96384.16;4964157;28;20301;-86
2022/11/02 09:08:00;;;;;;;10.43;2.30;;;;;;;12.22;76.60;96384.44;4980322;28;20189;-85
2022/11/02 09:10:26;;;;;;;7.63;2.20;;;;;;;12.16;76.53;96381.41;4963339;28;20211;-86
2022/11/02 09:12:52;;;;;;;14.57;5.10;;;;;;;12.19;76.10;96375.94;4979111;28;20188;-86
2022/11/02 09:15:17;;;;;;;10.93;3.27;;;;;;;12.23;75.27;96378.25;4980563;28;20180;-84
2022/11/02 09:17:46;;;;;;;10.33;3.03;;;;;;;12.45;74.04;96380.56;4992279;28;20189;-85
2022/11/02 09:20:12;;;;;;;11.77;3.60;;;;;;;12.38;73.51;96384.72;4993948;28;20205;-85
2022/11/02 09:22:37;;;;;;;9.33;3.37;;;;;;;12.60;73.37;96383.56;4995014;28;20289;-85
2022/11/02 09:25:03;;;;;;;6.60;2.17;;;;;;;12.48;72.22;96388.13;4968798;28;20211;-85
2022/11/02 09:27:28;;;;;;;8.83;2.70;;;;;;;12.71;72.21;96392.03;4979678;28;20681;-85
2022/11/02 09:29:53;;;;;;;11.17;2.83;;;;;;;12.71;72.30;96397.25;4979312;28;20755;-86
2022/11/02 09:32:19;;;;;;;7.00;2.33;;;;;;;12.54;72.52;96389.34;4965117;28;20198;-86
2022/11/02 09:34:46;;;;;;;22.60;6.97;;;;;;;12.81;71.26;96391.19;4976375;28;20208;-85
2022/11/02 09:37:11;;;;;;;15.60;4.03;;;;;;;12.92;71.42;96399.69;4976094;28;20180;-85
2022/11/02 09:39:36;;;;;;;11.60;2.60;;;;;;;12.93;71.88;96403.94;4959032;28;20187;-85
2022/11/02 09:42:10;;;;;;;11.70;2.70;;;;;;;12.93;71.71;96406.56;4975411;28;20522;-85
2022/11/02 09:44:48;;;;;;;5.33;1.70;;;;;;;12.86;70.84;96394.22;4974699;28;20212;-85
2022/11/02 09:47:14;;;;;;;10.53;2.77;;;;;;;12.65;71.08;96397.84;4990463;28;20189;-85
2022/11/02 09:49:40;;;;;;;12.50;5.00;;;;;;;12.75;71.07;96400.44;4973578;28;20181;-84
2022/11/02 09:52:13;;;;;;;7.53;2.50;;;;;;;12.89;70.64;96401.75;4957919;28;20192;-86
2022/11/02 09:54:41;;;;;;;8.23;2.30;;;;;;;12.75;71.00;96406.47;4970741;28;20219;-85
2022/11/02 09:57:14;;;;;;;11.80;2.73;;;;;;;12.84;70.80;96406.59;4965927;28;20189;-85
2022/11/02 09:59:39;;;;;;;7.77;2.90;;;;;;;12.82;71.05;96408.50;4971827;28;20192;-86
2022/11/02 10:02:54;;;;;;;14.17;4.27;;;;;;;12.93;70.58;96403.94;4954529;28;20251;-85
2022/11/02 10:05:28;;;;;;;10.33;3.60;;;;;;;12.92;70.65;96404.91;4949694;28;20284;-84
2022/11/02 10:08:11;;;;;;;14.97;4.67;;;;;;;12.90;70.54;96400.81;4989752;28;20188;-85
2022/11/02 10:10:40;;;;;;;7.70;2.60;;;;;;;12.82;71.15;96406.72;4964576;28;20208;-85
2022/11/02 10:13:33;;;;;;;7.80;2.00;;;;;;;12.88;71.55;96403.53;4981618;28;20283;-85
2022/11/02 10:16:17;;;;;;;6.57;1.80;;;;;;;12.91;71.15;96412.88;4951999;28;20249;-84
2022/11/02 10:18:48;;;;;;;7.83;2.10;;;;;;;13.08;71.03;96408.72;4955749;28;20185;-85
2022/11/02 10:21:18;;;;;;;11.33;2.87;;;;;;;13.13;71.62;96407.31;4973423;28;20204;-86
2022/11/02 10:23:52;;;;;;;7.00;2.75;;;;;;;13.39;70.63;96409.31;4969474;28;20184;-85
2022/11/02 10:26:28;;;;;;;11.43;2.10;;;;;;;13.21;69.76;96409.25;4977316;28;20187;-85
2022/11/02 10:29:05;;;;;;;11.40;3.37;;;;;;;13.11;69.47;96411.03;4973547;28;20203;-84
2022/11/02 10:31:34;;;;;;;7.23;2.60;;;;;;;13.31;69.80;96402.19;4970177;28;20266;-84
2022/11/02 10:34:19;;;;;;;7.77;2.23;;;;;;;13.27;69.47;96406.06;4987642;28;20312;-85
2022/11/02 10:37:06;;;;;;;17.23;6.80;;;;;;;12.95;67.80;96399.41;4958118;28;20188;-85
2022/11/02 10:39:43;;;;;;;15.87;5.50;;;;;;;12.68;68.13;96396.72;4973036;28;20267;-85
2022/11/02 10:42:46;;;;;;;16.77;5.73;;;;;;;12.68;68.51;96394.94;4958746;28;20248;-85
2022/11/02 10:45:19;;;;;;;10.47;3.17;;;;;;;12.75;68.85;96398.63;4973108;28;20200;-85
2022/11/02 10:48:08;;;;;;;14.43;4.53;;;;;;;12.67;69.00;96398.50;4973796;28;20532;-86
2022/11/02 10:50:52;;;;;;;17.97;6.97;;;;;;;12.39;68.76;96391.56;4971456;28;20200;-84
2022/11/02 10:53:19;;;;;;;17.00;4.63;;;;;;;12.43;68.64;96396.34;4970383;28;20270;-84
2022/11/02 10:55:55;;;;;;;10.83;3.70;;;;;;;12.35;69.04;96390.16;4972731;28;20575;-86
2022/11/02 10:58:21;;;;;;;11.00;5.10;;;;;;;12.38;69.68;96393.34;4972518;28;20235;-85
2022/11/02 11:00:47;;;;;;;11.37;4.57;;;;;;;12.34;69.33;96394.56;4962796;28;20209;-85
2022/11/02 11:03:17;;;;;;;12.33;4.20;;;;;;;12.36;69.20;96399.63;4956196;28;20279;-85
2022/11/02 11:05:48;;;;;;;7.93;2.43;;;;;;;12.39;68.87;96384.56;4972191;28;20652;-84
2022/11/02 11:08:41;;;;;;;7.50;2.10;;;;;;;12.75;67.90;96385.59;4971709;28;20191;-84
2022/11/02 11:11:14;;;;;;;6.30;1.50;;;;;;;12.89;67.29;96391.31;4950374;28;20221;-85
2022/11/02 11:13:41;;;;;;;12.80;4.50;;;;;;;13.07;66.88;96392.22;4974172;28;20180;-84
2022/11/02 11:16:07;;;;;;;11.50;3.07;;;;;;;13.33;66.01;96393.25;4957398;28;20192;-85
2022/11/02 11:18:32;;;;;;;7.00;2.00;;;;;;;13.06;64.60;96395.81;4969058;28;20276;-85
2022/11/02 11:20:58;;;;;;;8.77;2.50;;;;;;;13.29;64.72;96397.13;4957430;28;20239;-84
2022/11/02 11:23:24;;;;;;;12.67;3.53;;;;;;;13.36;63.42;96391.34;4972050;28;20660;-85
2022/11/02 11:26:04;;;;;;;8.67;3.63;;;;;;;13.22;63.67;96396.06;4973209;28;20288;-85
2022/11/02 11:28:51;;;;;;;9.50;2.27;;;;;;;13.19;63.99;96379.84;4973120;28;20274;-85
2022/11/02 11:31:16;;;;;;;8.03;2.17;;;;;;;13.14;64.90;96382.06;4960808;28;20358;-85
2022/11/02 11:33:44;;;;;;;13.80;3.57;;;;;;;13.15;65.23;96384.53;4954344;28;20189;-84
2022/11/02 11:36:10;;;;;;;10.70;4.80;;;;;;;13.17;65.92;96390.44;4971190;28;20211;-85
2022/11/02 11:38:36;;;;;;;8.47;2.07;;;;;;;12.99;63.71;96381.72;4966235;28;20250;-85
2022/11/02 11:41:03;;;;;;;7.37;2.10;;;;;;;12.91;63.60;96374.59;4957148;28;20209;-84
2022/11/02 11:43:33;;;;;;;12.87;4.97;;;;;;;12.81;64.23;96384.25;4962122;28;20220;-85
2022/11/02 11:46:00;;;;;;;11.27;3.93;;;;;;;12.75;64.21;96374.38;4959301;28;20211;-84
2022/11/02 11:48:29;;;;;;;8.90;2.13;;;;;;;12.61;64.54;96374.78;4957136;28;20742;-85
2022/11/02 11:50:55;;;;;;;7.07;2.13;;;;;;;12.69;65.11;96370.53;4973023;28;20210;-83
2022/11/02 11:53:26;;;;;;;10.27;2.10;;;;;;;12.96;63.57;96368.94;4966522;28;20188;-85
2022/11/02 11:55:53;;;;;;;7.47;1.60;;;;;;;12.97;62.40;96371.41;4994974;28;20183;-84
2022/11/02 11:58:36;;;;;;;6.07;1.90;;;;;;;12.82;61.85;96366.81;4969648;28;20203;-84
2022/11/02 12:01:11;;;;;;;7.87;2.13;;;;;;;12.75;62.25;96361.34;4952555;28;20800;-85
2022/11/02 12:03:50;;;;;;;10.63;2.60;;;;;;;13.18;61.48;96350.34;4970226;28;20207;-84